Observation data for Snyder on 01/12/2018      Previous  Date  Next       Current Mesonet Observations  Soil Data  Daily Summary Page  Observations in Plain Language
KSYS 120600Z 02006KT M00/M09 A3028 RMK A01 T10021092  RH  051%=      5-min Rain = 0
KSYS 120605Z 03007KT M00/M09 A3028 RMK A01 T10031092  RH  052%=      5-min Rain = 0
KSYS 120610Z 03007KT M00/M09 A3028 RMK A01 T10041092  RH  052%=      5-min Rain = 0
KSYS 120615Z 03007KT M01/M09 A3028 RMK A01 T10061093  RH  053%=      5-min Rain = 0
KSYS 120620Z 03008KT M01/M09 A3028 RMK A01 T10061092  RH  053%=      5-min Rain = 0
KSYS 120625Z 02006KT M01/M09 A3028 RMK A01 T10071093  RH  053%=      5-min Rain = 0
KSYS 120630Z 01003KT M01/M10 A3028 RMK A01 T10111095  RH  053%=      5-min Rain = 0
KSYS 120635Z 02005KT M02/M10 A3028 RMK A01 T10151095  RH  055%=      5-min Rain = 0
KSYS 120640Z 03007KT M02/M09 A3029 RMK A01 T10151093  RH  056%=      5-min Rain = 0
KSYS 120645Z 02006KT M01/M09 A3029 RMK A01 T10141093  RH  056%=      5-min Rain = 0
KSYS 120650Z 36003KT M02/M10 A3029 RMK A01 T10161095  RH  055%=      5-min Rain = 0
KSYS 120655Z 34003KT M02/M10 A3029 RMK A01 T10211099  RH  056%=      5-min Rain = 0
KSYS 120700Z 36004KT M03/M10 A3029 RMK A01 T10261100  RH  057%=      5-min Rain = 0
KSYS 120705Z 01005KT M03/M10 A3029 RMK A01 T10281098  RH  059%=      5-min Rain = 0
KSYS 120710Z 01006KT M03/M10 A3029 RMK A01 T10271096  RH  060%=      5-min Rain = 0
KSYS 120715Z 00005KT M03/M10 A3029 RMK A01 T10261096  RH  059%=      5-min Rain = 0
KSYS 120720Z 00004KT M03/M10 A3029 RMK A01 T10261096  RH  059%=      5-min Rain = 0
KSYS 120725Z 01004KT M02/M09 A3029 RMK A01 T10231093  RH  060%=      5-min Rain = 0
KSYS 120730Z 02003KT M02/M09 A3028 RMK A01 T10211093  RH  058%=      5-min Rain = 0
KSYS 120735Z 36003KT M02/M10 A3028 RMK A01 T10221095  RH  058%=      5-min Rain = 0
KSYS 120740Z 01005KT M03/M10 A3028 RMK A01 T10281100  RH  058%=      5-min Rain = 0
KSYS 120745Z 03008KT M03/M10 A3028 RMK A01 T10311096  RH  061%=      5-min Rain = 0
KSYS 120750Z 03009KT M02/M09 A3027 RMK A01 T10231090  RH  061%=      5-min Rain = 0
KSYS 120755Z 04009KT M02/M09 A3027 RMK A01 T10161088  RH  059%=      5-min Rain = 0
KSYS 120800Z 04008KT M01/M09 A3027 RMK A01 T10131089  RH  057%=      5-min Rain = 0
KSYS 120805Z 03008KT M01/M09 A3027 RMK A01 T10141089  RH  057%=      5-min Rain = 0
KSYS 120810Z 03008KT M01/M09 A3027 RMK A01 T10141089  RH  058%=      5-min Rain = 0
KSYS 120815Z 03008KT M01/M09 A3027 RMK A01 T10141089  RH  058%=      5-min Rain = 0
KSYS 120820Z 04007KT M02/M09 A3027 RMK A01 T10151089  RH  058%=      5-min Rain = 0
KSYS 120825Z 04007KT M02/M09 A3027 RMK A01 T10161089  RH  058%=      5-min Rain = 0
KSYS 120830Z 03005KT M02/M09 A3027 RMK A01 T10171089  RH  058%=      5-min Rain = 0
KSYS 120835Z 03004KT M02/M09 A3028 RMK A01 T10181090  RH  059%=      5-min Rain = 0
KSYS 120840Z 04006KT M02/M09 A3028 RMK A01 T10191090  RH  059%=      5-min Rain = 0
KSYS 120845Z 03006KT M02/M09 A3028 RMK A01 T10191090  RH  059%=      5-min Rain = 0
KSYS 120850Z 03006KT M02/M09 A3028 RMK A01 T10181090  RH  059%=      5-min Rain = 0
KSYS 120855Z 03006KT M02/M09 A3028 RMK A01 T10201091  RH  059%=      5-min Rain = 0
KSYS 120900Z 02005KT M02/M09 A3028 RMK A01 T10221092  RH  060%=      5-min Rain = 0
KSYS 120905Z 02004KT M03/M09 A3028 RMK A01 T10251093  RH  060%=      5-min Rain = 0
KSYS 120910Z 03005KT M03/M09 A3028 RMK A01 T10261093  RH  061%=      5-min Rain = 0
KSYS 120915Z 03005KT M03/M09 A3028 RMK A01 T10271092  RH  062%=      5-min Rain = 0
KSYS 120920Z 02003KT M03/M09 A3028 RMK A01 T10291094  RH  062%=      5-min Rain = 0
KSYS 120925Z 01003KT M03/M10 A3028 RMK A01 T10321095  RH  063%=      5-min Rain = 0
KSYS 120930Z 04004KT M03/M09 A3028 RMK A01 T10331094  RH  064%=      5-min Rain = 0
KSYS 120935Z 04003KT M03/M09 A3028 RMK A01 T10341094  RH  064%=      5-min Rain = 0
KSYS 120940Z 01002KT M03/M09 A3028 RMK A01 T10341094  RH  064%=      5-min Rain = 0
KSYS 120945Z 03002KT M04/M09 A3028 RMK A01 T10351094  RH  065%=      5-min Rain = 0
KSYS 120950Z 04001KT M04/M09 A3028 RMK A01 T10361094  RH  065%=      5-min Rain = 0
KSYS 120955Z 05003KT M04/M09 A3028 RMK A01 T10361093  RH  065%=      5-min Rain = 0
KSYS 121000Z 05002KT M04/M09 A3029 RMK A01 T10361094  RH  065%=      5-min Rain = 0
KSYS 121005Z 02001KT M04/M10 A3028 RMK A01 T10361095  RH  065%=      5-min Rain = 0
KSYS 121010Z 02000KT M04/M09 A3029 RMK A01 T10381094  RH  066%=      5-min Rain = 0
KSYS 121015Z 31001KT M04/M09 A3028 RMK A01 T10381094  RH  066%=      5-min Rain = 0
KSYS 121020Z 06002KT M04/M09 A3027 RMK A01 T10381094  RH  066%=      5-min Rain = 0
KSYS 121025Z 07003KT M04/M09 A3027 RMK A01 T10391094  RH  066%=      5-min Rain = 0
KSYS 121030Z 08003KT M04/M09 A3027 RMK A01 T10391094  RH  066%=      5-min Rain = 0
KSYS 121035Z 07003KT M04/M09 A3027 RMK A01 T10391094  RH  067%=      5-min Rain = 0
KSYS 121040Z 07004KT M04/M09 A3026 RMK A01 T10391094  RH  067%=      5-min Rain = 0
KSYS 121045Z 09002KT M04/M09 A3026 RMK A01 T10401094  RH  067%=      5-min Rain = 0
KSYS 121050Z 07003KT M04/M09 A3026 RMK A01 T10401094  RH  067%=      5-min Rain = 0
KSYS 121055Z 10002KT M04/M09 A3026 RMK A01 T10401094  RH  067%=      5-min Rain = 0
KSYS 121100Z 12000KT M04/M09 A3027 RMK A01 T10411094  RH  067%=      5-min Rain = 0
KSYS 121105Z 05001KT M04/M10 A3027 RMK A01 T10421095  RH  067%=      5-min Rain = 0
KSYS 121110Z 30002KT M04/M10 A3028 RMK A01 T10431095  RH  068%=      5-min Rain = 0
KSYS 121115Z 29002KT M05/M10 A3028 RMK A01 T10471099  RH  068%=      5-min Rain = 0
KSYS 121120Z 03000KT M05/M10 A3027 RMK A01 T10511099  RH  070%=      5-min Rain = 0
KSYS 121125Z 06000KT M05/M10 A3027 RMK A01 T10501096  RH  072%=      5-min Rain = 0
KSYS 121130Z 16001KT M05/M09 A3027 RMK A01 T10471094  RH  070%=      5-min Rain = 0
KSYS 121135Z 14000KT M05/M10 A3027 RMK A01 T10451095  RH  069%=      5-min Rain = 0
KSYS 121140Z 01001KT M05/M10 A3027 RMK A01 T10451096  RH  068%=      5-min Rain = 0
KSYS 121145Z 34002KT M05/M10 A3028 RMK A01 T10471097  RH  069%=      5-min Rain = 0
KSYS 121150Z 34002KT M05/M10 A3028 RMK A01 T10511097  RH  071%=      5-min Rain = 0
KSYS 121155Z 02003KT M05/M10 A3027 RMK A01 T10511096  RH  072%=      5-min Rain = 0
KSYS 121200Z 02003KT M05/M10 A3027 RMK A01 T10501097  RH  071%=      5-min Rain = 0
KSYS 121205Z 02004KT M05/M10 A3027 RMK A01 T10491097  RH  070%=      5-min Rain = 0
KSYS 121210Z 02003KT M05/M10 A3028 RMK A01 T10491097  RH  070%=      5-min Rain = 0
KSYS 121215Z 02003KT M05/M10 A3028 RMK A01 T10491097  RH  070%=      5-min Rain = 0
KSYS 121220Z 02003KT M05/M10 A3028 RMK A01 T10501098  RH  070%=      5-min Rain = 0
KSYS 121225Z 02003KT M05/M10 A3028 RMK A01 T10511099  RH  070%=      5-min Rain = 0
KSYS 121230Z 04004KT M05/M10 A3028 RMK A01 T10531099  RH  071%=      5-min Rain = 0
KSYS 121235Z 04004KT M05/M10 A3028 RMK A01 T10511097  RH  071%=      5-min Rain = 0
KSYS 121240Z 04004KT M05/M10 A3028 RMK A01 T10511098  RH  070%=      5-min Rain = 0
KSYS 121245Z 04003KT M05/M10 A3028 RMK A01 T10511097  RH  071%=      5-min Rain = 0
KSYS 121250Z 07004KT M05/M10 A3028 RMK A01 T10501097  RH  071%=      5-min Rain = 0
KSYS 121255Z 05004KT M05/M10 A3028 RMK A01 T10481097  RH  070%=      5-min Rain = 0
KSYS 121300Z 06004KT M05/M10 A3028 RMK A01 T10471096  RH  069%=      5-min Rain = 0
KSYS 121305Z 06003KT M05/M10 A3028 RMK A01 T10461096  RH  069%=      5-min Rain = 0
KSYS 121310Z 07004KT M05/M10 A3028 RMK A01 T10451096  RH  068%=      5-min Rain = 0
KSYS 121315Z 06004KT M04/M10 A3028 RMK A01 T10441096  RH  068%=      5-min Rain = 0
KSYS 121320Z 07005KT M04/M10 A3028 RMK A01 T10441096  RH  068%=      5-min Rain = 0
KSYS 121325Z 08003KT M05/M10 A3028 RMK A01 T10451097  RH  068%=      5-min Rain = 0
KSYS 121330Z 08003KT M05/M10 A3028 RMK A01 T10461097  RH  069%=      5-min Rain = 0
KSYS 121335Z 30002KT M05/M10 A3028 RMK A01 T10481098  RH  069%=      5-min Rain = 0
KSYS 121340Z 03001KT M05/M10 A3029 RMK A01 T10511098  RH  070%=      5-min Rain = 0
KSYS 121345Z 06001KT M05/M10 A3029 RMK A01 T10491096  RH  071%=      5-min Rain = 0
KSYS 121350Z 07002KT M05/M10 A3028 RMK A01 T10471096  RH  070%=      5-min Rain = 0
KSYS 121355Z 30002KT M05/M10 A3029 RMK A01 T10471098  RH  068%=      5-min Rain = 0
KSYS 121400Z 29001KT M06/M11 A3029 RMK A01 T10571107  RH  069%=      5-min Rain = 0
KSYS 121405Z 29002KT M06/M10 A303 RMK A01 T10611103  RH  073%=      5-min Rain = 0
KSYS 121410Z 29000KT M06/M10 A303 RMK A01 T10611099  RH  075%=      5-min Rain = 0
KSYS 121415Z 28002KT M05/M09 A303 RMK A01 T10541094  RH  074%=      5-min Rain = 0
KSYS 121420Z 26002KT M05/M10 A303 RMK A01 T10521095  RH  072%=      5-min Rain = 0
KSYS 121425Z 26000KT M05/M09 A303 RMK A01 T10491094  RH  072%=      5-min Rain = 0
KSYS 121430Z 27000KT M05/M09 A303 RMK A01 T10471094  RH  070%=      5-min Rain = 0
KSYS 121435Z 26000KT M04/M09 A303 RMK A01 T10431092  RH  070%=      5-min Rain = 0
KSYS 121440Z 29002KT M04/M09 A303 RMK A01 T10391093  RH  067%=      5-min Rain = 0
KSYS 121445Z 32000KT M04/M09 A303 RMK A01 T10401093  RH  067%=      5-min Rain = 0
KSYS 121450Z 06002KT M04/M09 A303 RMK A01 T10381091  RH  067%=      5-min Rain = 0
KSYS 121455Z 04001KT M03/M09 A303 RMK A01 T10331088  RH  067%=      5-min Rain = 0
KSYS 121500Z 36001KT M03/M09 A3031 RMK A01 T10291086  RH  066%=      5-min Rain = 0
KSYS 121505Z 05001KT M03/M09 A303 RMK A01 T10251085  RH  064%=      5-min Rain = 0
KSYS 121510Z 14002KT M02/M09 A303 RMK A01 T10181085  RH  061%=      5-min Rain = 0
KSYS 121515Z 15003KT M01/M09 A303 RMK A01 T10111086  RH  057%=      5-min Rain = 0
KSYS 121520Z 15004KT M01/M09 A303 RMK A01 T10071086  RH  056%=      5-min Rain = 0
KSYS 121525Z 15005KT M00/M09 A303 RMK A01 T10031085  RH  055%=      5-min Rain = 0
KSYS 121530Z 14004KT M00/M09 A303 RMK A01 T10021086  RH  054%=      5-min Rain = 0
KSYS 121535Z 15004KT 00/M09 A303 RMK A01 T00011087  RH  052%=      5-min Rain = 0
KSYS 121540Z 15004KT 00/M09 A303 RMK A01 T00031087  RH  052%=      5-min Rain = 0
KSYS 121545Z 14004KT 01/M09 A303 RMK A01 T00061085  RH  051%=      5-min Rain = 0
KSYS 121550Z 15004KT 01/M08 A303 RMK A01 T00101083  RH  051%=      5-min Rain = 0
KSYS 121555Z 15004KT 01/M08 A303 RMK A01 T00121084  RH  049%=      5-min Rain = 0
KSYS 121600Z 16005KT 01/M09 A303 RMK A01 T00141085  RH  048%=      5-min Rain = 0
KSYS 121605Z 16004KT 01/M09 A303 RMK A01 T00141085  RH  048%=      5-min Rain = 0
KSYS 121610Z 15004KT 02/M09 A303 RMK A01 T00201086  RH  046%=      5-min Rain = 0
KSYS 121615Z 16004KT 02/M09 A303 RMK A01 T00221087  RH  045%=      5-min Rain = 0
KSYS 121620Z 15004KT 03/M09 A303 RMK A01 T00261087  RH  044%=      5-min Rain = 0
KSYS 121625Z 15004KT 03/M09 A303 RMK A01 T00291085  RH  043%=      5-min Rain = 0
KSYS 121630Z 14004KT 03/M09 A303 RMK A01 T00311085  RH  043%=      5-min Rain = 0
KSYS 121635Z 17004KT 03/M08 A303 RMK A01 T00331084  RH  043%=      5-min Rain = 0
KSYS 121640Z 18005KT 04/M08 A303 RMK A01 T00351083  RH  042%=      5-min Rain = 0
KSYS 121645Z 17004KT 04/M09 A303 RMK A01 T00371086  RH  041%=      5-min Rain = 0
KSYS 121650Z 17004KT 04/M09 A303 RMK A01 T00401086  RH  040%=      5-min Rain = 0
KSYS 121655Z 14004KT 05/M09 A303 RMK A01 T00451087  RH  038%=      5-min Rain = 0
KSYS 121700Z 16005KT 05/M09 A3029 RMK A01 T00471088  RH  037%=      5-min Rain = 0
KSYS 121705Z 15006KT 05/M09 A3029 RMK A01 T00471092  RH  036%=      5-min Rain = 0
KSYS 121710Z 16006KT 05/M09 A3029 RMK A01 T00481093  RH  036%=      5-min Rain = 0
KSYS 121715Z 15006KT 05/M09 A3029 RMK A01 T00501093  RH  035%=      5-min Rain = 0
KSYS 121720Z 15006KT 05/M09 A3028 RMK A01 T00531093  RH  034%=      5-min Rain = 0
KSYS 121725Z 15006KT 05/M09 A3028 RMK A01 T00531094  RH  034%=      5-min Rain = 0
KSYS 121730Z 14006KT 06/M09 A3028 RMK A01 T00561093  RH  034%=      5-min Rain = 0
KSYS 121735Z 15005KT 06/M09 A3027 RMK A01 T00611093  RH  033%=      5-min Rain = 0
KSYS 121740Z 14007KT 06/M09 A3027 RMK A01 T00641093  RH  032%=      5-min Rain = 0
KSYS 121745Z 15006KT 07/M09 A3027 RMK A01 T00651093  RH  032%=      5-min Rain = 0
KSYS 121750Z 15005KT 06/M09 A3026 RMK A01 T00641093  RH  032%=      5-min Rain = 0
KSYS 121755Z 14006KT 07/M09 A3026 RMK A01 T00681094  RH  031%=      5-min Rain = 0
KSYS 121800Z 15006KT 07/M09 A3026 RMK A01 T00711093  RH  030%=      5-min Rain = 0
KSYS 121805Z 15007KT 08/M10 A3025 RMK A01 T00761095  RH  029%=      5-min Rain = 0
KSYS 121810Z 17008KT 08/M10 A3025 RMK A01 T00781095  RH  028%=      5-min Rain = 0
KSYS 121815Z 15007KT 08/M10 A3025 RMK A01 T00761095  RH  029%=      5-min Rain = 0
KSYS 121820Z 14008KT 08/M10 A3024 RMK A01 T00771098  RH  028%=      5-min Rain = 0
KSYS 121825Z 14007KT 08/M10 A3024 RMK A01 T00771098  RH  028%=      5-min Rain = 0
KSYS 121830Z 14009KT 08/M10 A3023 RMK A01 T00771101  RH  027%=      5-min Rain = 0
KSYS 121835Z 15010KT 08/M10 A3023 RMK A01 T00751104  RH  027%=      5-min Rain = 0
KSYS 121840Z 12010KT 08/M10 A3022 RMK A01 T00801103  RH  026%=      5-min Rain = 0
KSYS 121845Z 12009KT 08/M10 A3022 RMK A01 T00821102  RH  026%=      5-min Rain = 0
KSYS 121850Z 14008G13KT 08/M11 A3021 RMK A01 T00831105  RH  025%=      5-min Rain = 0
KSYS 121855Z 13010G18KT 09/M11 A3021 RMK A01 T00861105  RH  025%=      5-min Rain = 0
KSYS 121900Z 13009G15KT 09/M11 A3021 RMK A01 T00891106  RH  024%=      5-min Rain = 0
KSYS 121905Z 13012KT 09/M11 A302 RMK A01 T00881110  RH  024%=      5-min Rain = 0
KSYS 121910Z 12009KT 09/M11 A302 RMK A01 T00901107  RH  024%=      5-min Rain = 0
KSYS 121915Z 13012KT 09/M10 A302 RMK A01 T00931104  RH  024%=      5-min Rain = 0
KSYS 121920Z 13009KT 10/M10 A3019 RMK A01 T00951103  RH  024%=      5-min Rain = 0
KSYS 121925Z 13010KT 10/M10 A3019 RMK A01 T00981102  RH  024%=      5-min Rain = 0
KSYS 121930Z 13009G15KT 10/M10 A3019 RMK A01 T00971101  RH  024%=      5-min Rain = 0
KSYS 121935Z 13010G15KT 10/M10 A3018 RMK A01 T00981101  RH  024%=      5-min Rain = 0
KSYS 121940Z 14009KT 10/M10 A3018 RMK A01 T01001100  RH  024%=      5-min Rain = 0
KSYS 121945Z 13008KT 10/M10 A3018 RMK A01 T01001101  RH  024%=      5-min Rain = 0
KSYS 121950Z 14009G15KT 10/M10 A3017 RMK A01 T01031101  RH  023%=      5-min Rain = 0
KSYS 121955Z 15008KT 11/M10 A3017 RMK A01 T01071102  RH  022%=      5-min Rain = 0
KSYS 122000Z 14007KT 11/M10 A3017 RMK A01 T01081101  RH  022%=      5-min Rain = 0
KSYS 122005Z 16010G15KT 11/M11 A3016 RMK A01 T01091106  RH  021%=      5-min Rain = 0
KSYS 122010Z 14010KT 11/M10 A3016 RMK A01 T01091104  RH  022%=      5-min Rain = 0
KSYS 122015Z 14008KT 11/M10 A3016 RMK A01 T01131101  RH  021%=      5-min Rain = 0
KSYS 122020Z 14007KT 12/M10 A3016 RMK A01 T01161103  RH  021%=      5-min Rain = 0
KSYS 122025Z 14008G13KT 12/M10 A3016 RMK A01 T01181103  RH  021%=      5-min Rain = 0
KSYS 122030Z 15009G16KT 12/M11 A3016 RMK A01 T01191110  RH  019%=      5-min Rain = 0
KSYS 122035Z 17009G14KT 12/M11 A3016 RMK A01 T01211111  RH  019%=      5-min Rain = 0
KSYS 122040Z 17011KT 12/M11 A3016 RMK A01 T01211110  RH  019%=      5-min Rain = 0
KSYS 122045Z 17008KT 12/M11 A3016 RMK A01 T01201109  RH  019%=      5-min Rain = 0
KSYS 122050Z 20008KT 12/M11 A3016 RMK A01 T01231109  RH  019%=      5-min Rain = 0
KSYS 122055Z 19009KT 12/M11 A3016 RMK A01 T01231113  RH  018%=      5-min Rain = 0
KSYS 122100Z 17011G16KT 12/M11 A3016 RMK A01 T01221114  RH  018%=      5-min Rain = 0
KSYS 122105Z 16011KT 12/M12 A3016 RMK A01 T01191116  RH  018%=      5-min Rain = 0
KSYS 122110Z 17010KT 12/M12 A3016 RMK A01 T01211116  RH  018%=      5-min Rain = 0
KSYS 122115Z 16009G15KT 12/M12 A3016 RMK A01 T01231115  RH  018%=      5-min Rain = 0
KSYS 122120Z 16010G15KT 12/M12 A3016 RMK A01 T01211115  RH  018%=      5-min Rain = 0
KSYS 122125Z 17009KT 12/M12 A3016 RMK A01 T01191116  RH  018%=      5-min Rain = 0
KSYS 122130Z 18010KT 12/M11 A3016 RMK A01 T01191113  RH  019%=      5-min Rain = 0
KSYS 122135Z 17010G15KT 12/M11 A3016 RMK A01 T01181114  RH  019%=      5-min Rain = 0
KSYS 122140Z 18009G14KT 12/M11 A3016 RMK A01 T01191114  RH  019%=      5-min Rain = 0
KSYS 122145Z 17009KT 12/M11 A3016 RMK A01 T01171113  RH  019%=      5-min Rain = 0
KSYS 122150Z 19008KT 12/M11 A3016 RMK A01 T01181111  RH  019%=      5-min Rain = 0
KSYS 122155Z 17007KT 12/M11 A3016 RMK A01 T01191112  RH  019%=      5-min Rain = 0
KSYS 122200Z 16008KT 12/M11 A3016 RMK A01 T01191112  RH  019%=      5-min Rain = 0
KSYS 122205Z 19008KT 12/M11 A3017 RMK A01 T01181112  RH  019%=      5-min Rain = 0
KSYS 122210Z 19006KT 12/M11 A3017 RMK A01 T01181112  RH  019%=      5-min Rain = 0
KSYS 122215Z 16007KT 12/M11 A3016 RMK A01 T01171111  RH  019%=      5-min Rain = 0
KSYS 122220Z 17007G12KT 12/M11 A3016 RMK A01 T01181111  RH  019%=      5-min Rain = 0
KSYS 122225Z 18009KT 12/M11 A3016 RMK A01 T01171110  RH  020%=      5-min Rain = 0
KSYS 122230Z 17007KT 12/M11 A3016 RMK A01 T01161109  RH  020%=      5-min Rain = 0
KSYS 122235Z 16006KT 12/M11 A3016 RMK A01 T01151110  RH  020%=      5-min Rain = 0
KSYS 122240Z 15007G12KT 12/M11 A3016 RMK A01 T01151108  RH  020%=      5-min Rain = 0
KSYS 122245Z 18008KT 11/M11 A3016 RMK A01 T01141107  RH  020%=      5-min Rain = 0
KSYS 122250Z 16008KT 11/M11 A3016 RMK A01 T01121106  RH  021%=      5-min Rain = 0
KSYS 122255Z 15008KT 11/M11 A3016 RMK A01 T01111105  RH  021%=      5-min Rain = 0
KSYS 122300Z 16007KT 11/M10 A3016 RMK A01 T01101104  RH  021%=      5-min Rain = 0
KSYS 122305Z 16006KT 11/M10 A3016 RMK A01 T01101104  RH  021%=      5-min Rain = 0
KSYS 122310Z 14006KT 11/M10 A3016 RMK A01 T01111103  RH  021%=      5-min Rain = 0
KSYS 122315Z 15007KT 11/M10 A3016 RMK A01 T01091104  RH  022%=      5-min Rain = 0
KSYS 122320Z 16007KT 11/M11 A3016 RMK A01 T01061105  RH  022%=      5-min Rain = 0
KSYS 122325Z 15006KT 10/M11 A3016 RMK A01 T01041105  RH  022%=      5-min Rain = 0
KSYS 122330Z 14006KT 10/M11 A3016 RMK A01 T01021105  RH  022%=      5-min Rain = 0
KSYS 122335Z 14006KT 10/M11 A3016 RMK A01 T00991106  RH  023%=      5-min Rain = 0
KSYS 122340Z 13006KT 10/M11 A3016 RMK A01 T00961106  RH  023%=      5-min Rain = 0
KSYS 122345Z 13006KT 09/M11 A3017 RMK A01 T00921107  RH  024%=      5-min Rain = 0
KSYS 122350Z 13006KT 09/M11 A3017 RMK A01 T00871108  RH  024%=      5-min Rain = 0
KSYS 122355Z 13007KT 08/M11 A3017 RMK A01 T00821108  RH  025%=      5-min Rain = 0
KSYS 130000Z 09007KT 07/M11 A3017 RMK A01 T00741110  RH  026%=      5-min Rain = 0
KSYS 130005Z 09008KT 07/M11 A3017 RMK A01 T00651111  RH  028%=      5-min Rain = 0
KSYS 130010Z 08008KT 06/M11 A3017 RMK A01 T00581112  RH  029%=      5-min Rain = 0
KSYS 130015Z 08008KT 06/M11 A3018 RMK A01 T00551113  RH  029%=      5-min Rain = 0
KSYS 130020Z 08008KT 05/M11 A3018 RMK A01 T00531113  RH  029%=      5-min Rain = 0
KSYS 130025Z 08009KT 05/M11 A3018 RMK A01 T00521114  RH  029%=      5-min Rain = 0
KSYS 130030Z 08009KT 05/M12 A3019 RMK A01 T00521115  RH  029%=      5-min Rain = 0
KSYS 130035Z 08009KT 05/M12 A3019 RMK A01 T00511116  RH  029%=      5-min Rain = 0
KSYS 130040Z 08009KT 05/M12 A3019 RMK A01 T00491116  RH  029%=      5-min Rain = 0
KSYS 130045Z 08009KT 05/M12 A3019 RMK A01 T00481116  RH  030%=      5-min Rain = 0
KSYS 130050Z 08010KT 05/M12 A302 RMK A01 T00471116  RH  030%=      5-min Rain = 0
KSYS 130055Z 08010KT 05/M12 A302 RMK A01 T00471116  RH  030%=      5-min Rain = 0
KSYS 130100Z 08010KT 05/M12 A302 RMK A01 T00461116  RH  030%=      5-min Rain = 0
KSYS 130105Z 08010KT 05/M12 A302 RMK A01 T00451115  RH  031%=      5-min Rain = 0
KSYS 130110Z 07010KT 04/M12 A3021 RMK A01 T00441116  RH  031%=      5-min Rain = 0
KSYS 130115Z 07010KT 04/M12 A3021 RMK A01 T00431116  RH  031%=      5-min Rain = 0
KSYS 130120Z 08010KT 04/M12 A3021 RMK A01 T00421116  RH  031%=      5-min Rain = 0
KSYS 130125Z 08011KT 04/M12 A3021 RMK A01 T00411115  RH  031%=      5-min Rain = 0
KSYS 130130Z 08011KT 04/M12 A3022 RMK A01 T00411115  RH  032%=      5-min Rain = 0
KSYS 130135Z 08011KT 04/M12 A3022 RMK A01 T00401115  RH  032%=      5-min Rain = 0
KSYS 130140Z 08011KT 04/M12 A3022 RMK A01 T00391115  RH  032%=      5-min Rain = 0
KSYS 130145Z 08011G16KT 04/M12 A3023 RMK A01 T00391115  RH  032%=      5-min Rain = 0
KSYS 130150Z 08012KT 04/M12 A3023 RMK A01 T00391116  RH  032%=      5-min Rain = 0
KSYS 130155Z 08011KT 04/M12 A3023 RMK A01 T00391116  RH  032%=      5-min Rain = 0
KSYS 130200Z 08012KT 04/M12 A3024 RMK A01 T00371116  RH  032%=      5-min Rain = 0
KSYS 130205Z 08011KT 04/M12 A3024 RMK A01 T00361116  RH  032%=      5-min Rain = 0
KSYS 130210Z 07011KT 03/M12 A3024 RMK A01 T00341117  RH  032%=      5-min Rain = 0
KSYS 130215Z 07010KT 03/M12 A3025 RMK A01 T00331119  RH  032%=      5-min Rain = 0
KSYS 130220Z 07009KT 03/M12 A3025 RMK A01 T00291120  RH  033%=      5-min Rain = 0
KSYS 130225Z 07011KT 03/M12 A3026 RMK A01 T00281121  RH  033%=      5-min Rain = 0
KSYS 130230Z 07010KT 03/M12 A3026 RMK A01 T00271122  RH  033%=      5-min Rain = 0
KSYS 130235Z 08011G16KT 02/M12 A3025 RMK A01 T00241123  RH  033%=      5-min Rain = 0
KSYS 130240Z 08012G17KT 02/M12 A3026 RMK A01 T00241124  RH  033%=      5-min Rain = 0
KSYS 130245Z 08011KT 03/M12 A3026 RMK A01 T00251124  RH  033%=      5-min Rain = 0
KSYS 130250Z 08011KT 02/M12 A3026 RMK A01 T00241124  RH  033%=      5-min Rain = 0
KSYS 130255Z 07012KT 02/M12 A3027 RMK A01 T00221124  RH  033%=      5-min Rain = 0
KSYS 130300Z 06011G16KT 02/M12 A3028 RMK A01 T00201124  RH  034%=      5-min Rain = 0
KSYS 130305Z 06012KT 02/M12 A3028 RMK A01 T00171123  RH  035%=      5-min Rain = 0
KSYS 130310Z 06012KT 02/M12 A3029 RMK A01 T00171123  RH  035%=      5-min Rain = 0
KSYS 130315Z 06012KT 02/M12 A303 RMK A01 T00161123  RH  035%=      5-min Rain = 0
KSYS 130320Z 06013KT 02/M12 A303 RMK A01 T00151123  RH  036%=      5-min Rain = 0
KSYS 130325Z 06012KT 01/M12 A303 RMK A01 T00131123  RH  036%=      5-min Rain = 0
KSYS 130330Z 06012G17KT 01/M12 A303 RMK A01 T00121123  RH  036%=      5-min Rain = 0
KSYS 130335Z 06011G16KT 01/M12 A303 RMK A01 T00111123  RH  037%=      5-min Rain = 0
KSYS 130340Z 06012G17KT 01/M12 A303 RMK A01 T00101123  RH  037%=      5-min Rain = 0
KSYS 130345Z 06011KT 01/M12 A3031 RMK A01 T00081123  RH  037%=      5-min Rain = 0
KSYS 130350Z 07011G16KT 01/M12 A3031 RMK A01 T00071123  RH  038%=      5-min Rain = 0
KSYS 130355Z 07010G15KT 01/M12 A3031 RMK A01 T00061123  RH  038%=      5-min Rain = 0
KSYS 130400Z 06011KT 01/M12 A3032 RMK A01 T00051122  RH  039%=      5-min Rain = 0
KSYS 130405Z 06011KT 00/M12 A3032 RMK A01 T00031122  RH  039%=      5-min Rain = 0
KSYS 130410Z 06011KT 00/M12 A3033 RMK A01 T00021121  RH  040%=      5-min Rain = 0
KSYS 130415Z 06011KT 00/M12 A3033 RMK A01 T00011121  RH  040%=      5-min Rain = 0
KSYS 130420Z 07010KT 00/M12 A3033 RMK A01 T00011121  RH  040%=      5-min Rain = 0
KSYS 130425Z 05010KT M00/M12 A3034 RMK A01 T10011120  RH  041%=      5-min Rain = 0
KSYS 130430Z 05011KT M00/M12 A3034 RMK A01 T10021119  RH  041%=      5-min Rain = 0
KSYS 130435Z 05011KT M00/M12 A3035 RMK A01 T10041119  RH  042%=      5-min Rain = 0
KSYS 130440Z 05011G17KT M01/M12 A3035 RMK A01 T10051118  RH  043%=      5-min Rain = 0
KSYS 130445Z 05011KT M01/M12 A3035 RMK A01 T10061118  RH  043%=      5-min Rain = 0
KSYS 130450Z 05010KT M01/M12 A3036 RMK A01 T10081117  RH  044%=      5-min Rain = 0
KSYS 130455Z 04010KT M01/M12 A3037 RMK A01 T10081116  RH  044%=      5-min Rain = 0
KSYS 130500Z 04009KT M01/M12 A3037 RMK A01 T10091116  RH  045%=      5-min Rain = 0
KSYS 130505Z 04010KT M01/M12 A3037 RMK A01 T10101116  RH  045%=      5-min Rain = 0
KSYS 130510Z 05009G14KT M01/M12 A3038 RMK A01 T10111117  RH  045%=      5-min Rain = 0
KSYS 130515Z 05010KT M01/M12 A3038 RMK A01 T10121117  RH  045%=      5-min Rain = 0
KSYS 130520Z 05010G15KT M01/M12 A3038 RMK A01 T10131118  RH  045%=      5-min Rain = 0
KSYS 130525Z 05010G15KT M01/M12 A3038 RMK A01 T10131119  RH  045%=      5-min Rain = 0
KSYS 130530Z 05010KT M01/M12 A3039 RMK A01 T10141119  RH  045%=      5-min Rain = 0
KSYS 130535Z 05010KT M02/M12 A3039 RMK A01 T10151120  RH  045%=      5-min Rain = 0
KSYS 130540Z 05009KT M02/M12 A3039 RMK A01 T10161120  RH  046%=      5-min Rain = 0
KSYS 130545Z 05010G15KT M02/M12 A304 RMK A01 T10171121  RH  046%=      5-min Rain = 0
KSYS 130550Z 05010KT M02/M12 A304 RMK A01 T10171121  RH  045%=      5-min Rain = 0
KSYS 130555Z 04009G14KT M02/M12 A304 RMK A01 T10171121  RH  045%=      5-min Rain = 0

Page generated in 0.0302 seconds.